sensor_id;sensor_type;location;lat;lon;timestamp;temperature;humidity
11122;DHT22;5615;49.304;10.576;2022-10-16T00:01:47;14.70;99.90
11122;DHT22;5615;49.304;10.576;2022-10-16T00:04:15;14.60;99.90
11122;DHT22;5615;49.304;10.576;2022-10-16T00:06:42;14.60;99.90
11122;DHT22;5615;49.304;10.576;2022-10-16T00:09:08;14.60;99.90
11122;DHT22;5615;49.304;10.576;2022-10-16T00:11:37;14.60;99.90
11122;DHT22;5615;49.304;10.576;2022-10-16T00:14:07;14.50;99.90
11122;DHT22;5615;49.304;10.576;2022-10-16T00:16:34;14.50;99.90
11122;DHT22;5615;49.304;10.576;2022-10-16T00:19:01;14.60;99.90
11122;DHT22;5615;49.304;10.576;2022-10-16T00:21:30;14.60;99.90
11122;DHT22;5615;49.304;10.576;2022-10-16T00:23:59;14.60;99.90
11122;DHT22;5615;49.304;10.576;2022-10-16T00:26:27;14.50;99.90
11122;DHT22;5615;49.304;10.576;2022-10-16T00:28:54;14.50;99.90
11122;DHT22;5615;49.304;10.576;2022-10-16T00:31:22;14.50;99.90
11122;DHT22;5615;49.304;10.576;2022-10-16T00:33:49;14.40;99.90
11122;DHT22;5615;49.304;10.576;2022-10-16T00:36:19;14.30;99.90
11122;DHT22;5615;49.304;10.576;2022-10-16T00:38:49;14.30;99.90
11122;DHT22;5615;49.304;10.576;2022-10-16T00:41:18;14.50;99.90
11122;DHT22;5615;49.304;10.576;2022-10-16T00:43:46;14.50;99.90
11122;DHT22;5615;49.304;10.576;2022-10-16T00:46:16;14.60;99.90
11122;DHT22;5615;49.304;10.576;2022-10-16T00:48:48;14.70;99.90
11122;DHT22;5615;49.304;10.576;2022-10-16T00:51:18;14.60;99.90
11122;DHT22;5615;49.304;10.576;2022-10-16T00:53:48;14.70;99.90
11122;DHT22;5615;49.304;10.576;2022-10-16T00:56:14;14.70;99.90
11122;DHT22;5615;49.304;10.576;2022-10-16T00:58:41;14.70;99.90
11122;DHT22;5615;49.304;10.576;2022-10-16T01:01:08;14.70;99.90
11122;DHT22;5615;49.304;10.576;2022-10-16T01:03:36;14.70;99.90
11122;DHT22;5615;49.304;10.576;2022-10-16T01:06:09;14.70;99.90
11122;DHT22;5615;49.304;10.576;2022-10-16T01:08:45;14.70;99.90
11122;DHT22;5615;49.304;10.576;2022-10-16T01:11:22;14.80;99.90
11122;DHT22;5615;49.304;10.576;2022-10-16T01:13:53;14.80;99.90
11122;DHT22;5615;49.304;10.576;2022-10-16T01:16:28;14.70;99.90
11122;DHT22;5615;49.304;10.576;2022-10-16T01:19:01;14.70;99.90
11122;DHT22;5615;49.304;10.576;2022-10-16T01:21:35;14.70;99.90
11122;DHT22;5615;49.304;10.576;2022-10-16T01:24:08;14.70;99.90
11122;DHT22;5615;49.304;10.576;2022-10-16T01:26:57;14.70;99.90
11122;DHT22;5615;49.304;10.576;2022-10-16T01:29:26;14.60;99.90
11122;DHT22;5615;49.304;10.576;2022-10-16T01:31:59;14.60;99.90
11122;DHT22;5615;49.304;10.576;2022-10-16T01:34:32;14.60;99.90
11122;DHT22;5615;49.304;10.576;2022-10-16T01:37:03;14.60;99.90
11122;DHT22;5615;49.304;10.576;2022-10-16T01:39:34;14.60;99.90
11122;DHT22;5615;49.304;10.576;2022-10-16T01:42:09;14.60;99.90
11122;DHT22;5615;49.304;10.576;2022-10-16T01:44:38;14.70;99.90
11122;DHT22;5615;49.304;10.576;2022-10-16T01:47:06;14.70;99.90
11122;DHT22;5615;49.304;10.576;2022-10-16T01:49:35;14.70;99.90
11122;DHT22;5615;49.304;10.576;2022-10-16T01:52:07;14.60;99.90
11122;DHT22;5615;49.304;10.576;2022-10-16T01:54:37;14.70;99.90
11122;DHT22;5615;49.304;10.576;2022-10-16T01:57:06;14.70;99.90
11122;DHT22;5615;49.304;10.576;2022-10-16T01:59:38;14.70;99.90
11122;DHT22;5615;49.304;10.576;2022-10-16T02:02:08;14.70;99.90
11122;DHT22;5615;49.304;10.576;2022-10-16T02:04:39;14.60;99.90
11122;DHT22;5615;49.304;10.576;2022-10-16T02:07:07;14.70;99.90
11122;DHT22;5615;49.304;10.576;2022-10-16T02:09:34;14.60;99.90
11122;DHT22;5615;49.304;10.576;2022-10-16T02:12:08;14.60;99.90
11122;DHT22;5615;49.304;10.576;2022-10-16T02:14:38;14.50;99.90
11122;DHT22;5615;49.304;10.576;2022-10-16T02:17:11;14.50;99.90
11122;DHT22;5615;49.304;10.576;2022-10-16T02:19:37;14.50;99.90
11122;DHT22;5615;49.304;10.576;2022-10-16T02:22:06;14.50;99.90
11122;DHT22;5615;49.304;10.576;2022-10-16T02:24:39;14.50;99.90
11122;DHT22;5615;49.304;10.576;2022-10-16T02:27:12;14.50;99.90
11122;DHT22;5615;49.304;10.576;2022-10-16T02:29:42;14.40;99.90
11122;DHT22;5615;49.304;10.576;2022-10-16T02:32:13;14.40;99.90
11122;DHT22;5615;49.304;10.576;2022-10-16T02:34:42;14.40;99.90
11122;DHT22;5615;49.304;10.576;2022-10-16T02:37:10;14.40;99.90
11122;DHT22;5615;49.304;10.576;2022-10-16T02:39:37;14.40;99.90
11122;DHT22;5615;49.304;10.576;2022-10-16T02:42:04;14.30;99.90
11122;DHT22;5615;49.304;10.576;2022-10-16T02:44:37;14.30;99.90
11122;DHT22;5615;49.304;10.576;2022-10-16T02:47:03;14.40;99.90
11122;DHT22;5615;49.304;10.576;2022-10-16T02:49:30;14.40;99.90
11122;DHT22;5615;49.304;10.576;2022-10-16T02:51:57;14.30;99.90
11122;DHT22;5615;49.304;10.576;2022-10-16T02:54:23;14.30;99.90
11122;DHT22;5615;49.304;10.576;2022-10-16T02:56:50;14.20;99.90
11122;DHT22;5615;49.304;10.576;2022-10-16T02:59:17;14.20;99.90
11122;DHT22;5615;49.304;10.576;2022-10-16T03:01:45;14.20;99.90
11122;DHT22;5615;49.304;10.576;2022-10-16T03:04:11;14.10;99.90
11122;DHT22;5615;49.304;10.576;2022-10-16T03:06:38;14.10;99.90
11122;DHT22;5615;49.304;10.576;2022-10-16T03:09:05;14.10;99.90
11122;DHT22;5615;49.304;10.576;2022-10-16T03:11:31;14.00;99.90
11122;DHT22;5615;49.304;10.576;2022-10-16T03:13:58;14.00;99.90
11122;DHT22;5615;49.304;10.576;2022-10-16T03:16:24;13.90;99.90
11122;DHT22;5615;49.304;10.576;2022-10-16T03:18:52;13.90;99.90
11122;DHT22;5615;49.304;10.576;2022-10-16T03:21:19;14.00;99.90
11122;DHT22;5615;49.304;10.576;2022-10-16T03:23:46;14.00;99.90
11122;DHT22;5615;49.304;10.576;2022-10-16T03:26:13;14.00;99.90
11122;DHT22;5615;49.304;10.576;2022-10-16T03:28:40;14.00;99.90
11122;DHT22;5615;49.304;10.576;2022-10-16T03:31:06;14.00;99.90
11122;DHT22;5615;49.304;10.576;2022-10-16T03:33:33;14.00;99.90
11122;DHT22;5615;49.304;10.576;2022-10-16T03:36:01;14.10;99.90
11122;DHT22;5615;49.304;10.576;2022-10-16T03:38:28;14.10;99.90
11122;DHT22;5615;49.304;10.576;2022-10-16T03:40:55;14.10;99.90
11122;DHT22;5615;49.304;10.576;2022-10-16T03:43:21;14.10;99.90
11122;DHT22;5615;49.304;10.576;2022-10-16T03:45:50;14.10;99.90
11122;DHT22;5615;49.304;10.576;2022-10-16T03:48:16;14.10;99.90
11122;DHT22;5615;49.304;10.576;2022-10-16T03:50:43;14.20;99.90
11122;DHT22;5615;49.304;10.576;2022-10-16T03:53:11;14.20;99.90
11122;DHT22;5615;49.304;10.576;2022-10-16T03:55:38;14.20;99.90
11122;DHT22;5615;49.304;10.576;2022-10-16T03:58:04;14.20;99.90
11122;DHT22;5615;49.304;10.576;2022-10-16T04:00:31;14.20;99.90
11122;DHT22;5615;49.304;10.576;2022-10-16T04:02:58;14.20;99.90
11122;DHT22;5615;49.304;10.576;2022-10-16T04:05:24;14.30;99.90
11122;DHT22;5615;49.304;10.576;2022-10-16T04:07:51;14.20;99.90
11122;DHT22;5615;49.304;10.576;2022-10-16T04:10:19;14.20;99.90
11122;DHT22;5615;49.304;10.576;2022-10-16T04:12:46;14.20;99.90
11122;DHT22;5615;49.304;10.576;2022-10-16T04:15:13;14.20;99.90
11122;DHT22;5615;49.304;10.576;2022-10-16T04:17:39;14.10;99.90
11122;DHT22;5615;49.304;10.576;2022-10-16T04:20:06;14.10;99.90
11122;DHT22;5615;49.304;10.576;2022-10-16T04:22:33;14.10;99.90
11122;DHT22;5615;49.304;10.576;2022-10-16T04:25:00;14.20;99.90
11122;DHT22;5615;49.304;10.576;2022-10-16T04:27:28;14.10;99.90
11122;DHT22;5615;49.304;10.576;2022-10-16T04:29:56;14.10;99.90
11122;DHT22;5615;49.304;10.576;2022-10-16T04:32:23;14.10;99.90
11122;DHT22;5615;49.304;10.576;2022-10-16T04:34:50;14.10;99.90
11122;DHT22;5615;49.304;10.576;2022-10-16T04:37:16;14.10;99.90
11122;DHT22;5615;49.304;10.576;2022-10-16T04:39:43;14.10;99.90
11122;DHT22;5615;49.304;10.576;2022-10-16T04:42:10;14.10;99.90
11122;DHT22;5615;49.304;10.576;2022-10-16T04:44:38;14.10;99.90
11122;DHT22;5615;49.304;10.576;2022-10-16T04:47:05;14.10;99.90
11122;DHT22;5615;49.304;10.576;2022-10-16T04:49:32;14.00;99.90
11122;DHT22;5615;49.304;10.576;2022-10-16T04:51:58;14.00;99.90
11122;DHT22;5615;49.304;10.576;2022-10-16T04:54:25;13.90;99.90
11122;DHT22;5615;49.304;10.576;2022-10-16T04:56:52;13.90;99.90
11122;DHT22;5615;49.304;10.576;2022-10-16T04:59:19;13.90;99.90
11122;DHT22;5615;49.304;10.576;2022-10-16T05:01:47;13.90;99.90
11122;DHT22;5615;49.304;10.576;2022-10-16T05:04:14;13.90;99.90
11122;DHT22;5615;49.304;10.576;2022-10-16T05:06:41;13.90;99.90
11122;DHT22;5615;49.304;10.576;2022-10-16T05:09:08;14.00;99.90
11122;DHT22;5615;49.304;10.576;2022-10-16T05:11:35;13.90;99.90
11122;DHT22;5615;49.304;10.576;2022-10-16T05:14:02;13.90;99.90
11122;DHT22;5615;49.304;10.576;2022-10-16T05:16:29;13.90;99.90
11122;DHT22;5615;49.304;10.576;2022-10-16T05:18:57;13.90;99.90
11122;DHT22;5615;49.304;10.576;2022-10-16T05:21:23;13.90;99.90
11122;DHT22;5615;49.304;10.576;2022-10-16T05:23:50;13.90;99.90
11122;DHT22;5615;49.304;10.576;2022-10-16T05:26:16;13.90;99.90
11122;DHT22;5615;49.304;10.576;2022-10-16T05:28:43;13.90;99.90
11122;DHT22;5615;49.304;10.576;2022-10-16T05:31:10;13.90;99.90
11122;DHT22;5615;49.304;10.576;2022-10-16T05:33:37;13.90;99.90
11122;DHT22;5615;49.304;10.576;2022-10-16T05:36:06;13.90;99.90
11122;DHT22;5615;49.304;10.576;2022-10-16T05:38:34;13.90;99.90
11122;DHT22;5615;49.304;10.576;2022-10-16T05:41:01;14.00;99.90
11122;DHT22;5615;49.304;10.576;2022-10-16T05:43:28;14.00;99.90
11122;DHT22;5615;49.304;10.576;2022-10-16T05:45:55;14.00;99.90
11122;DHT22;5615;49.304;10.576;2022-10-16T05:48:23;13.90;99.90
11122;DHT22;5615;49.304;10.576;2022-10-16T05:50:56;14.00;99.90
11122;DHT22;5615;49.304;10.576;2022-10-16T05:53:25;14.00;99.90
11122;DHT22;5615;49.304;10.576;2022-10-16T05:55:52;14.00;99.90
11122;DHT22;5615;49.304;10.576;2022-10-16T05:58:19;14.00;99.90
11122;DHT22;5615;49.304;10.576;2022-10-16T06:00:53;14.00;99.90
11122;DHT22;5615;49.304;10.576;2022-10-16T06:03:19;14.00;99.90
11122;DHT22;5615;49.304;10.576;2022-10-16T06:05:46;14.00;99.90
11122;DHT22;5615;49.304;10.576;2022-10-16T06:08:13;14.10;99.90
11122;DHT22;5615;49.304;10.576;2022-10-16T06:10:41;14.10;99.90
11122;DHT22;5615;49.304;10.576;2022-10-16T06:13:09;14.10;99.90
11122;DHT22;5615;49.304;10.576;2022-10-16T06:15:35;14.10;99.90
11122;DHT22;5615;49.304;10.576;2022-10-16T06:18:04;14.10;99.90
11122;DHT22;5615;49.304;10.576;2022-10-16T06:20:31;14.10;99.90
11122;DHT22;5615;49.304;10.576;2022-10-16T06:22:57;14.20;99.90
11122;DHT22;5615;49.304;10.576;2022-10-16T06:25:24;14.20;99.90
11122;DHT22;5615;49.304;10.576;2022-10-16T06:27:52;14.30;99.90
11122;DHT22;5615;49.304;10.576;2022-10-16T06:30:19;14.40;99.90
11122;DHT22;5615;49.304;10.576;2022-10-16T06:32:45;14.50;99.90
11122;DHT22;5615;49.304;10.576;2022-10-16T06:35:12;14.50;99.90
11122;DHT22;5615;49.304;10.576;2022-10-16T06:37:39;14.60;99.90
11122;DHT22;5615;49.304;10.576;2022-10-16T06:40:06;14.60;99.90
11122;DHT22;5615;49.304;10.576;2022-10-16T06:42:33;14.70;99.90
11122;DHT22;5615;49.304;10.576;2022-10-16T06:45:01;14.80;99.90
11122;DHT22;5615;49.304;10.576;2022-10-16T06:47:28;14.80;99.90
11122;DHT22;5615;49.304;10.576;2022-10-16T06:49:54;14.80;99.90
11122;DHT22;5615;49.304;10.576;2022-10-16T06:52:21;14.90;99.90
11122;DHT22;5615;49.304;10.576;2022-10-16T06:54:47;14.90;99.90
11122;DHT22;5615;49.304;10.576;2022-10-16T06:57:14;14.90;99.90
11122;DHT22;5615;49.304;10.576;2022-10-16T06:59:41;14.90;99.90
11122;DHT22;5615;49.304;10.576;2022-10-16T07:02:09;14.90;99.90
11122;DHT22;5615;49.304;10.576;2022-10-16T07:04:36;14.90;99.90
11122;DHT22;5615;49.304;10.576;2022-10-16T07:07:03;14.90;99.90
11122;DHT22;5615;49.304;10.576;2022-10-16T07:09:29;15.00;99.90
11122;DHT22;5615;49.304;10.576;2022-10-16T07:11:56;15.00;99.90
11122;DHT22;5615;49.304;10.576;2022-10-16T07:14:23;15.10;99.90
11122;DHT22;5615;49.304;10.576;2022-10-16T07:16:50;15.20;99.90
11122;DHT22;5615;49.304;10.576;2022-10-16T07:19:18;15.30;99.90
11122;DHT22;5615;49.304;10.576;2022-10-16T07:21:45;15.40;99.90
11122;DHT22;5615;49.304;10.576;2022-10-16T07:24:13;15.50;99.90
11122;DHT22;5615;49.304;10.576;2022-10-16T07:26:40;15.50;99.90
11122;DHT22;5615;49.304;10.576;2022-10-16T07:29:09;15.60;99.90
11122;DHT22;5615;49.304;10.576;2022-10-16T07:31:37;15.60;99.90
11122;DHT22;5615;49.304;10.576;2022-10-16T07:34:05;15.70;99.90
11122;DHT22;5615;49.304;10.576;2022-10-16T07:36:33;15.80;99.90
11122;DHT22;5615;49.304;10.576;2022-10-16T07:39:00;15.80;99.90
11122;DHT22;5615;49.304;10.576;2022-10-16T07:41:27;15.90;99.90
11122;DHT22;5615;49.304;10.576;2022-10-16T07:43:54;16.00;99.90
11122;DHT22;5615;49.304;10.576;2022-10-16T07:46:23;16.10;99.90
11122;DHT22;5615;49.304;10.576;2022-10-16T07:48:49;16.10;99.90
11122;DHT22;5615;49.304;10.576;2022-10-16T07:51:18;16.10;99.90
11122;DHT22;5615;49.304;10.576;2022-10-16T07:53:47;16.20;99.90
11122;DHT22;5615;49.304;10.576;2022-10-16T07:56:14;16.20;99.90
11122;DHT22;5615;49.304;10.576;2022-10-16T07:58:41;16.40;99.90
11122;DHT22;5615;49.304;10.576;2022-10-16T08:01:09;16.40;99.90
11122;DHT22;5615;49.304;10.576;2022-10-16T08:03:37;16.50;99.90
11122;DHT22;5615;49.304;10.576;2022-10-16T08:06:04;16.50;99.90
11122;DHT22;5615;49.304;10.576;2022-10-16T08:08:31;16.60;99.90
11122;DHT22;5615;49.304;10.576;2022-10-16T08:10:59;16.60;99.90
11122;DHT22;5615;49.304;10.576;2022-10-16T08:13:25;16.80;99.90
11122;DHT22;5615;49.304;10.576;2022-10-16T08:15:54;16.90;99.90
11122;DHT22;5615;49.304;10.576;2022-10-16T08:18:21;16.90;99.90
11122;DHT22;5615;49.304;10.576;2022-10-16T08:20:47;16.80;99.90
11122;DHT22;5615;49.304;10.576;2022-10-16T08:23:14;17.00;99.90
11122;DHT22;5615;49.304;10.576;2022-10-16T08:25:41;17.10;99.90
11122;DHT22;5615;49.304;10.576;2022-10-16T08:28:11;17.20;99.90
11122;DHT22;5615;49.304;10.576;2022-10-16T08:30:37;17.30;99.90
11122;DHT22;5615;49.304;10.576;2022-10-16T08:33:04;17.40;99.90
11122;DHT22;5615;49.304;10.576;2022-10-16T08:35:31;17.40;99.90
11122;DHT22;5615;49.304;10.576;2022-10-16T08:37:58;17.50;99.90
11122;DHT22;5615;49.304;10.576;2022-10-16T08:40:26;17.60;99.90
11122;DHT22;5615;49.304;10.576;2022-10-16T08:46:20;17.80;99.90
11122;DHT22;5615;49.304;10.576;2022-10-16T08:48:50;18.00;99.90
11122;DHT22;5615;49.304;10.576;2022-10-16T08:51:20;18.20;99.90
11122;DHT22;5615;49.304;10.576;2022-10-16T08:53:51;18.30;99.90
11122;DHT22;5615;49.304;10.576;2022-10-16T08:56:19;18.50;99.90
11122;DHT22;5615;49.304;10.576;2022-10-16T08:58:46;18.30;99.90
11122;DHT22;5615;49.304;10.576;2022-10-16T09:01:16;18.50;99.90
11122;DHT22;5615;49.304;10.576;2022-10-16T09:03:56;18.50;99.90
11122;DHT22;5615;49.304;10.576;2022-10-16T09:06:40;18.30;99.90
11122;DHT22;5615;49.304;10.576;2022-10-16T09:09:26;18.20;99.90
11122;DHT22;5615;49.304;10.576;2022-10-16T09:12:02;17.90;99.90
11122;DHT22;5615;49.304;10.576;2022-10-16T09:14:44;17.80;99.90
11122;DHT22;5615;49.304;10.576;2022-10-16T09:17:23;17.60;99.90
11122;DHT22;5615;49.304;10.576;2022-10-16T09:19:55;17.50;99.90
11122;DHT22;5615;49.304;10.576;2022-10-16T09:22:26;17.50;99.90
11122;DHT22;5615;49.304;10.576;2022-10-16T09:24:54;17.60;99.90
11122;DHT22;5615;49.304;10.576;2022-10-16T09:27:21;17.80;99.90
11122;DHT22;5615;49.304;10.576;2022-10-16T09:29:48;18.10;99.90
11122;DHT22;5615;49.304;10.576;2022-10-16T09:32:19;18.30;99.90
11122;DHT22;5615;49.304;10.576;2022-10-16T09:34:49;18.70;99.90
11122;DHT22;5615;49.304;10.576;2022-10-16T09:37:19;19.10;99.90
11122;DHT22;5615;49.304;10.576;2022-10-16T09:39:47;19.40;99.90
11122;DHT22;5615;49.304;10.576;2022-10-16T09:42:16;19.50;99.90
11122;DHT22;5615;49.304;10.576;2022-10-16T09:44:47;19.80;99.90
11122;DHT22;5615;49.304;10.576;2022-10-16T09:47:19;19.80;99.90
11122;DHT22;5615;49.304;10.576;2022-10-16T09:49:54;20.00;99.90
11122;DHT22;5615;49.304;10.576;2022-10-16T09:52:22;20.20;99.90
11122;DHT22;5615;49.304;10.576;2022-10-16T09:54:50;20.50;99.90
11122;DHT22;5615;49.304;10.576;2022-10-16T09:57:17;20.40;99.90
11122;DHT22;5615;49.304;10.576;2022-10-16T09:59:49;20.50;99.90
11122;DHT22;5615;49.304;10.576;2022-10-16T10:02:18;20.60;99.90
11122;DHT22;5615;49.304;10.576;2022-10-16T10:04:49;20.30;99.90
11122;DHT22;5615;49.304;10.576;2022-10-16T10:07:18;20.50;99.90
11122;DHT22;5615;49.304;10.576;2022-10-16T10:09:47;20.60;99.90
11122;DHT22;5615;49.304;10.576;2022-10-16T10:12:19;20.70;99.90
11122;DHT22;5615;49.304;10.576;2022-10-16T10:14:47;20.90;99.90
11122;DHT22;5615;49.304;10.576;2022-10-16T10:17:19;21.00;99.90
11122;DHT22;5615;49.304;10.576;2022-10-16T10:19:51;20.80;99.90
11122;DHT22;5615;49.304;10.576;2022-10-16T10:22:25;21.40;99.90
11122;DHT22;5615;49.304;10.576;2022-10-16T10:25:21;21.90;99.90
11122;DHT22;5615;49.304;10.576;2022-10-16T10:28:03;22.30;99.90
11122;DHT22;5615;49.304;10.576;2022-10-16T10:30:37;22.20;99.90
11122;DHT22;5615;49.304;10.576;2022-10-16T10:33:17;22.10;99.90
11122;DHT22;5615;49.304;10.576;2022-10-16T10:35:53;21.90;99.90
11122;DHT22;5615;49.304;10.576;2022-10-16T10:38:30;21.90;99.90
11122;DHT22;5615;49.304;10.576;2022-10-16T10:41:15;21.80;99.90
11122;DHT22;5615;49.304;10.576;2022-10-16T10:43:54;21.80;99.90
11122;DHT22;5615;49.304;10.576;2022-10-16T10:46:28;21.90;99.90
11122;DHT22;5615;49.304;10.576;2022-10-16T10:49:25;22.00;99.90
11122;DHT22;5615;49.304;10.576;2022-10-16T10:52:02;21.70;99.90
11122;DHT22;5615;49.304;10.576;2022-10-16T10:54:36;21.90;99.90
11122;DHT22;5615;49.304;10.576;2022-10-16T10:57:10;22.40;99.90
11122;DHT22;5615;49.304;10.576;2022-10-16T11:00:00;22.80;99.90
11122;DHT22;5615;49.304;10.576;2022-10-16T11:02:34;23.20;99.90
11122;DHT22;5615;49.304;10.576;2022-10-16T11:08:08;24.10;99.90
11122;DHT22;5615;49.304;10.576;2022-10-16T11:10:42;24.50;99.90
11122;DHT22;5615;49.304;10.576;2022-10-16T11:13:19;24.50;99.90
11122;DHT22;5615;49.304;10.576;2022-10-16T11:15:48;25.20;99.90
11122;DHT22;5615;49.304;10.576;2022-10-16T11:18:19;25.40;99.90
11122;DHT22;5615;49.304;10.576;2022-10-16T11:20:52;25.10;99.90
11122;DHT22;5615;49.304;10.576;2022-10-16T11:23:23;25.10;99.90
11122;DHT22;5615;49.304;10.576;2022-10-16T11:25:52;24.70;99.90
11122;DHT22;5615;49.304;10.576;2022-10-16T11:28:23;24.70;99.90
11122;DHT22;5615;49.304;10.576;2022-10-16T11:30:55;25.00;99.90
11122;DHT22;5615;49.304;10.576;2022-10-16T11:33:27;27.00;99.90
11122;DHT22;5615;49.304;10.576;2022-10-16T11:36:03;28.90;99.90
11122;DHT22;5615;49.304;10.576;2022-10-16T11:38:34;29.10;99.90
11122;DHT22;5615;49.304;10.576;2022-10-16T11:41:12;28.40;99.90
11122;DHT22;5615;49.304;10.576;2022-10-16T11:43:45;29.80;99.90
11122;DHT22;5615;49.304;10.576;2022-10-16T11:46:17;29.30;99.90
11122;DHT22;5615;49.304;10.576;2022-10-16T11:48:49;29.10;99.90
11122;DHT22;5615;49.304;10.576;2022-10-16T11:51:25;29.90;99.90
11122;DHT22;5615;49.304;10.576;2022-10-16T11:53:57;31.30;99.90
11122;DHT22;5615;49.304;10.576;2022-10-16T11:56:25;31.00;99.90
11122;DHT22;5615;49.304;10.576;2022-10-16T11:58:57;30.80;99.90
11122;DHT22;5615;49.304;10.576;2022-10-16T12:01:30;30.20;99.90
11122;DHT22;5615;49.304;10.576;2022-10-16T12:04:13;29.00;99.90
11122;DHT22;5615;49.304;10.576;2022-10-16T12:06:45;28.60;99.90
11122;DHT22;5615;49.304;10.576;2022-10-16T12:09:17;28.80;99.90
11122;DHT22;5615;49.304;10.576;2022-10-16T12:11:46;26.70;99.90
11122;DHT22;5615;49.304;10.576;2022-10-16T12:14:34;25.70;99.90
11122;DHT22;5615;49.304;10.576;2022-10-16T12:17:03;25.70;99.90
11122;DHT22;5615;49.304;10.576;2022-10-16T12:19:32;25.00;99.90
11122;DHT22;5615;49.304;10.576;2022-10-16T12:22:02;25.10;99.90
11122;DHT22;5615;49.304;10.576;2022-10-16T12:24:33;24.80;99.90
11122;DHT22;5615;49.304;10.576;2022-10-16T12:27:02;24.90;99.90
11122;DHT22;5615;49.304;10.576;2022-10-16T12:29:34;26.60;99.90
11122;DHT22;5615;49.304;10.576;2022-10-16T12:32:03;27.60;99.90
11122;DHT22;5615;49.304;10.576;2022-10-16T12:34:37;30.10;99.90
11122;DHT22;5615;49.304;10.576;2022-10-16T12:37:13;32.00;99.90
11122;DHT22;5615;49.304;10.576;2022-10-16T12:39:41;32.50;99.90
11122;DHT22;5615;49.304;10.576;2022-10-16T12:42:30;33.20;99.90
11122;DHT22;5615;49.304;10.576;2022-10-16T12:44:59;32.40;99.90
11122;DHT22;5615;49.304;10.576;2022-10-16T12:47:36;31.90;99.80
11122;DHT22;5615;49.304;10.576;2022-10-16T12:50:21;33.10;99.00
11122;DHT22;5615;49.304;10.576;2022-10-16T12:52:50;33.10;98.30
11122;DHT22;5615;49.304;10.576;2022-10-16T12:55:19;31.80;97.70
11122;DHT22;5615;49.304;10.576;2022-10-16T12:58:11;32.40;97.30
11122;DHT22;5615;49.304;10.576;2022-10-16T13:00:45;33.10;96.30
11122;DHT22;5615;49.304;10.576;2022-10-16T13:06:33;37.30;90.80
11122;DHT22;5615;49.304;10.576;2022-10-16T13:09:25;37.80;82.50
11122;DHT22;5615;49.304;10.576;2022-10-16T13:12:07;37.00;82.80
11122;DHT22;5615;49.304;10.576;2022-10-16T13:17:37;37.80;77.10
11122;DHT22;5615;49.304;10.576;2022-10-16T13:20:12;38.40;72.10
11122;DHT22;5615;49.304;10.576;2022-10-16T13:22:49;38.70;68.40
11122;DHT22;5615;49.304;10.576;2022-10-16T13:25:24;39.90;64.80
11122;DHT22;5615;49.304;10.576;2022-10-16T13:27:55;39.50;60.70
11122;DHT22;5615;49.304;10.576;2022-10-16T13:30:24;39.50;60.20
11122;DHT22;5615;49.304;10.576;2022-10-16T13:32:58;39.80;57.60
11122;DHT22;5615;49.304;10.576;2022-10-16T13:35:27;39.50;57.00
11122;DHT22;5615;49.304;10.576;2022-10-16T13:38:04;39.00;56.40
11122;DHT22;5615;49.304;10.576;2022-10-16T13:40:32;39.70;55.60
11122;DHT22;5615;49.304;10.576;2022-10-16T13:43:00;37.30;55.80
11122;DHT22;5615;49.304;10.576;2022-10-16T13:45:27;35.70;59.70
11122;DHT22;5615;49.304;10.576;2022-10-16T13:48:02;37.50;56.70
11122;DHT22;5615;49.304;10.576;2022-10-16T13:50:29;37.60;56.10
11122;DHT22;5615;49.304;10.576;2022-10-16T13:53:03;38.40;54.60
11122;DHT22;5615;49.304;10.576;2022-10-16T13:55:32;39.80;53.90
11122;DHT22;5615;49.304;10.576;2022-10-16T13:58:05;39.50;53.50
11122;DHT22;5615;49.304;10.576;2022-10-16T14:00:32;38.90;54.40
11122;DHT22;5615;49.304;10.576;2022-10-16T14:03:01;39.40;54.30
11122;DHT22;5615;49.304;10.576;2022-10-16T14:05:28;40.10;53.30
11122;DHT22;5615;49.304;10.576;2022-10-16T14:07:56;41.10;51.60
11122;DHT22;5615;49.304;10.576;2022-10-16T14:10:27;40.40;49.90
11122;DHT22;5615;49.304;10.576;2022-10-16T14:12:58;36.80;52.40
11122;DHT22;5615;49.304;10.576;2022-10-16T14:15:25;36.00;54.70
11122;DHT22;5615;49.304;10.576;2022-10-16T14:17:53;33.40;57.80
11122;DHT22;5615;49.304;10.576;2022-10-16T14:20:24;33.30;59.80
11122;DHT22;5615;49.304;10.576;2022-10-16T14:22:58;35.40;58.30
11122;DHT22;5615;49.304;10.576;2022-10-16T14:25:28;36.40;56.70
11122;DHT22;5615;49.304;10.576;2022-10-16T14:28:04;36.60;54.80
11122;DHT22;5615;49.304;10.576;2022-10-16T14:30:33;34.10;58.60
11122;DHT22;5615;49.304;10.576;2022-10-16T14:33:01;32.00;61.50
11122;DHT22;5615;49.304;10.576;2022-10-16T14:35:30;30.00;65.40
11122;DHT22;5615;49.304;10.576;2022-10-16T14:37:59;28.50;70.30
11122;DHT22;5615;49.304;10.576;2022-10-16T14:40:28;27.20;75.10
11122;DHT22;5615;49.304;10.576;2022-10-16T14:42:55;26.30;78.80
11122;DHT22;5615;49.304;10.576;2022-10-16T14:45:26;25.60;83.00
11122;DHT22;5615;49.304;10.576;2022-10-16T14:47:55;24.90;87.40
11122;DHT22;5615;49.304;10.576;2022-10-16T14:50:23;24.40;90.70
11122;DHT22;5615;49.304;10.576;2022-10-16T14:52:50;24.00;93.00
11122;DHT22;5615;49.304;10.576;2022-10-16T14:55:17;23.70;95.00
11122;DHT22;5615;49.304;10.576;2022-10-16T14:57:45;23.50;96.60
11122;DHT22;5615;49.304;10.576;2022-10-16T15:00:17;23.20;98.30
11122;DHT22;5615;49.304;10.576;2022-10-16T15:02:47;23.10;99.80
11122;DHT22;5615;49.304;10.576;2022-10-16T15:05:17;23.00;99.90
11122;DHT22;5615;49.304;10.576;2022-10-16T15:07:45;22.70;99.90
11122;DHT22;5615;49.304;10.576;2022-10-16T15:10:12;22.40;99.90
11122;DHT22;5615;49.304;10.576;2022-10-16T15:12:39;22.10;99.90
11122;DHT22;5615;49.304;10.576;2022-10-16T15:15:30;22.00;99.90
11122;DHT22;5615;49.304;10.576;2022-10-16T15:18:00;21.70;99.90
11122;DHT22;5615;49.304;10.576;2022-10-16T15:20:28;21.60;99.90
11122;DHT22;5615;49.304;10.576;2022-10-16T15:22:56;21.50;99.90
11122;DHT22;5615;49.304;10.576;2022-10-16T15:25:30;21.30;99.90
11122;DHT22;5615;49.304;10.576;2022-10-16T15:27:57;21.30;99.90
11122;DHT22;5615;49.304;10.576;2022-10-16T15:30:24;21.20;99.90
11122;DHT22;5615;49.304;10.576;2022-10-16T15:32:51;21.20;99.90
11122;DHT22;5615;49.304;10.576;2022-10-16T15:35:19;21.00;99.90
11122;DHT22;5615;49.304;10.576;2022-10-16T15:37:46;21.00;99.90
11122;DHT22;5615;49.304;10.576;2022-10-16T15:40:13;20.90;99.90
11122;DHT22;5615;49.304;10.576;2022-10-16T15:42:40;20.70;99.90
11122;DHT22;5615;49.304;10.576;2022-10-16T15:45:08;20.70;99.90
11122;DHT22;5615;49.304;10.576;2022-10-16T15:47:35;20.60;99.90
11122;DHT22;5615;49.304;10.576;2022-10-16T15:50:01;20.50;99.90
11122;DHT22;5615;49.304;10.576;2022-10-16T15:52:30;20.50;99.90
11122;DHT22;5615;49.304;10.576;2022-10-16T15:54:57;20.40;99.90
11122;DHT22;5615;49.304;10.576;2022-10-16T15:57:24;20.40;99.90
11122;DHT22;5615;49.304;10.576;2022-10-16T15:59:51;20.30;99.90